Time;durP1;ratioP1;P1;durP2;ratioP2;P2;SDS_P1;SDS_P2;PMS_P1;PMS_P2;Temp;Humidity;BMP_temperature;BMP_pressure;BME280_temperature;BME280_humidity;BME280_pressure;Samples;Min_cycle;Max_cycle;Signal;HPM_P1;HPM_P2
2021/11/07 00:03:27;;;;;;;15.27;8.30;;;;;;;8.06;87.57;100965.70;5242241;55;1136982;-83
2021/11/07 00:13:24;;;;;;;19.77;9.00;;;;;;;7.95;87.77;100952.77;5222019;56;1136917;-78
2021/11/07 00:18:40;;;;;;;12.13;7.90;;;;;;;7.92;87.84;100934.55;5222748;55;1138896;-79
2021/11/07 00:39:40;;;;;;;11.73;7.67;;;;;;;7.70;88.15;100916.06;5219539;56;1139118;-84
2021/11/07 00:49:56;;;;;;;12.25;6.78;;;;;;;7.61;88.09;100888.98;5219217;56;1139275;-83
2021/11/07 00:55:10;;;;;;;15.37;8.53;;;;;;;7.56;87.96;100883.59;5219326;56;1138941;-81
2021/11/07 01:00:27;;;;;;;14.83;9.65;;;;;;;7.56;87.96;100886.23;5219536;56;1138943;-77
2021/11/07 01:05:28;;;;;;;9.77;6.90;;;;;;;7.50;88.02;100865.52;5214475;56;1138954;-81
2021/11/07 01:10:34;;;;;;;11.80;7.00;;;;;;;7.44;87.98;100861.95;5219493;56;1136900;-79
2021/11/07 01:15:40;;;;;;;19.52;9.73;;;;;;;7.38;87.93;100838.16;5219018;56;1139062;-77
2021/11/07 01:20:46;;;;;;;14.97;8.53;;;;;;;7.32;88.14;100834.59;5219240;56;1139217;-78
2021/11/07 01:25:57;;;;;;;14.60;8.97;;;;;;;7.27;88.12;100824.33;5210323;56;1138610;-76
2021/11/07 01:31:00;;;;;;;12.30;7.90;;;;;;;7.26;88.09;100816.53;5209173;56;1139059;-80
2021/11/07 01:41:38;;;;;;;11.45;7.42;;;;;;;7.17;88.18;100798.20;5210444;56;1136988;-82
2021/11/07 01:46:42;;;;;;;12.70;6.40;;;;;;;7.08;88.35;100789.52;5209000;56;1137151;-82
2021/11/07 01:51:50;;;;;;;13.43;6.90;;;;;;;7.10;88.47;100789.43;5164034;56;1136956;-83
2021/11/07 01:56:55;;;;;;;17.17;8.78;;;;;;;7.01;88.70;100779.00;5115017;57;1137041;-79
2021/11/07 02:02:01;;;;;;;11.93;7.60;;;;;;;6.96;88.86;100775.31;5146691;57;1137050;-80
2021/11/07 02:07:10;;;;;;;15.70;8.67;;;;;;;6.95;88.91;100769.67;5155816;57;1137175;-81
2021/11/07 02:12:16;;;;;;;15.23;8.63;;;;;;;6.94;88.93;100756.61;5161713;57;1136949;-83
2021/11/07 02:17:22;;;;;;;14.93;7.47;;;;;;;6.93;88.98;100745.72;5164374;56;1136959;-80
2021/11/07 02:22:28;;;;;;;10.53;7.13;;;;;;;6.92;88.97;100742.70;5164434;56;1137018;-82
2021/11/07 02:27:34;;;;;;;15.20;8.43;;;;;;;6.93;88.90;100734.73;5164341;56;1137025;-80
2021/11/07 02:32:41;;;;;;;13.18;8.28;;;;;;;6.88;88.90;100726.26;5164088;56;1137187;-81
2021/11/07 02:37:48;;;;;;;15.10;8.93;;;;;;;6.88;88.95;100718.84;5164382;56;1136863;-80
2021/11/07 02:42:54;;;;;;;17.43;8.33;;;;;;;6.84;88.95;100705.05;5164288;56;1134927;-82
2021/11/07 02:48:00;;;;;;;10.97;7.77;;;;;;;6.85;88.96;100684.87;5164360;56;1134826;-77
2021/11/07 02:53:06;;;;;;;9.30;5.63;;;;;;;6.82;89.49;100671.44;5281586;55;1134837;-81
2021/11/07 02:58:13;;;;;;;11.87;7.93;;;;;;;6.79;89.78;100666.35;5307505;55;1136870;-80
2021/11/07 03:03:18;;;;;;;8.97;6.27;;;;;;;6.72;90.18;100654.53;5307524;55;1136975;-78
2021/11/07 03:08:24;;;;;;;15.73;9.40;;;;;;;6.68;90.91;100661.74;5307539;55;1136828;-78
2021/11/07 03:13:30;;;;;;;13.70;5.78;;;;;;;6.68;90.96;100648.60;5225387;55;1139016;-80
2021/11/07 03:18:36;;;;;;;12.83;7.37;;;;;;;6.68;91.30;100643.34;5218773;56;1138987;-79
2021/11/07 03:23:49;;;;;;;14.33;7.67;;;;;;;6.67;90.96;100631.61;5218816;56;1139130;-78
2021/11/07 03:28:58;;;;;;;11.53;7.37;;;;;;;6.68;90.90;100634.61;5218334;56;1138939;-79
2021/11/07 03:34:03;;;;;;;9.33;5.83;;;;;;;6.69;91.26;100616.13;5218325;56;1138985;-83
2021/11/07 03:39:07;;;;;;;14.10;7.77;;;;;;;6.66;91.82;100601.00;5218583;56;1136895;-84
2021/11/07 03:44:14;;;;;;;16.27;8.17;;;;;;;6.60;92.55;100575.92;5218576;56;1139211;-80
2021/11/07 03:49:20;;;;;;;11.57;6.40;;;;;;;6.54;93.22;100566.27;5207924;56;1139080;-82
2021/11/07 03:54:29;;;;;;;8.53;6.20;;;;;;;6.50;93.44;100558.19;5206311;56;1139116;-79
2021/11/07 03:59:34;;;;;;;8.93;5.47;;;;;;;6.47;93.94;100563.16;5206575;56;1137009;-79
2021/11/07 04:04:39;;;;;;;9.67;5.70;;;;;;;6.46;93.90;100555.36;5206537;56;1137001;-82
2021/11/07 04:09:46;;;;;;;7.30;5.60;;;;;;;6.44;93.79;100552.82;5222107;55;1137032;-80
2021/11/07 04:14:51;;;;;;;7.97;6.37;;;;;;;6.44;93.38;100548.88;5294698;55;1136936;-81
2021/11/07 04:19:57;;;;;;;10.37;5.80;;;;;;;6.45;93.15;100530.87;5294342;55;1137198;-82
2021/11/07 04:25:06;;;;;;;9.27;6.20;;;;;;;6.42;92.94;100519.23;5301822;55;1138834;-78
2021/11/07 04:30:13;;;;;;;9.75;6.08;;;;;;;6.44;92.91;100513.88;5294156;55;1136937;-78
2021/11/07 04:35:20;;;;;;;9.93;5.43;;;;;;;6.44;92.64;100529.64;5294929;55;1136952;-80
2021/11/07 04:40:26;;;;;;;6.37;4.37;;;;;;;6.47;92.42;100503.20;5295134;55;1136958;-78
2021/11/07 04:45:32;;;;;;;9.43;6.07;;;;;;;6.47;91.87;100491.37;5293637;55;1137097;-78
2021/11/07 04:50:38;;;;;;;10.80;6.13;;;;;;;6.45;91.66;100480.95;5295210;55;1136938;-84
2021/11/07 04:55:45;;;;;;;6.83;4.27;;;;;;;6.46;91.59;100448.49;5297827;55;1138946;-83
2021/11/07 05:00:52;;;;;;;12.00;7.07;;;;;;;6.44;91.13;100453.46;5299194;55;1134890;-85
2021/11/07 05:05:58;;;;;;;9.13;5.40;;;;;;;6.43;91.17;100446.52;5298892;55;1138952;-84
2021/11/07 05:11:03;;;;;;;10.40;5.33;;;;;;;6.42;90.92;100436.48;5259947;55;1136919;-80
2021/11/07 05:16:09;;;;;;;7.53;4.73;;;;;;;6.43;90.64;100436.01;5210330;56;1139267;-79
2021/11/07 05:21:15;;;;;;;10.40;5.23;;;;;;;6.44;90.34;100425.88;5210263;56;1136999;-79
2021/11/07 05:26:22;;;;;;;8.63;4.87;;;;;;;6.45;90.15;100413.13;5213420;56;1136922;-80
2021/11/07 05:31:30;;;;;;;7.80;5.63;;;;;;;6.48;90.18;100394.55;5210409;56;1136895;-80
2021/11/07 05:36:40;;;;;;;5.47;4.13;;;;;;;6.52;90.00;100393.42;5210413;56;1136846;-78
2021/11/07 05:41:44;;;;;;;9.03;5.00;;;;;;;6.51;89.69;100382.07;5210033;56;1134835;-85
2021/11/07 05:46:50;;;;;;;7.17;4.57;;;;;;;6.55;89.39;100370.44;5211009;56;1136954;-82
2021/11/07 05:51:56;;;;;;;8.60;5.47;;;;;;;6.57;89.40;100364.58;5210831;56;1137120;-81
2021/11/07 05:57:03;;;;;;;7.20;4.30;;;;;;;6.58;89.37;100373.31;5211055;56;1136887;-78
2021/11/07 06:02:09;;;;;;;7.35;5.37;;;;;;;6.59;88.85;100367.95;5210937;56;1132662;-84
2021/11/07 06:07:17;;;;;;;9.40;5.80;;;;;;;6.63;89.11;100360.73;5211049;56;1134811;-81
2021/11/07 06:12:23;;;;;;;9.23;6.50;;;;;;;6.66;88.81;100355.29;5227255;56;1134842;-80
2021/11/07 06:17:29;;;;;;;13.13;7.40;;;;;;;6.66;88.25;100339.52;5233900;55;1132736;-79
2021/11/07 06:22:34;;;;;;;9.63;5.60;;;;;;;6.70;88.34;100339.70;5234108;55;1136881;-77
2021/11/07 06:27:41;;;;;;;8.70;5.03;;;;;;;6.74;88.53;100321.92;5233750;55;1134860;-83
2021/11/07 06:32:49;;;;;;;8.80;6.27;;;;;;;6.72;87.87;100311.55;5233633;55;1132871;-80
2021/11/07 06:37:56;;;;;;;8.83;5.83;;;;;;;6.76;87.80;100303.81;5233808;55;1134850;-82
2021/11/07 06:43:03;;;;;;;6.87;4.67;;;;;;;6.80;87.54;100307.09;5233752;55;1134889;-82
2021/11/07 06:48:09;;;;;;;9.70;5.23;;;;;;;6.81;87.13;100295.63;5241779;55;1132680;-81
2021/11/07 06:53:14;;;;;;;5.33;3.77;;;;;;;6.86;87.19;100282.57;5239123;55;1135047;-78
2021/11/07 06:58:20;;;;;;;7.73;4.97;;;;;;;6.87;86.96;100286.88;5222696;55;1132682;-80
2021/11/07 07:03:25;;;;;;;11.63;6.40;;;;;;;6.93;87.00;100289.09;5218631;56;1135082;-79
2021/11/07 07:08:42;;;;;;;6.63;4.60;;;;;;;6.96;86.88;100278.38;5218675;56;1136904;-78
2021/11/07 07:13:58;;;;;;;7.53;4.20;;;;;;;6.98;86.62;100280.44;5248872;55;1132696;-80
2021/11/07 07:19:06;;;;;;;7.63;5.77;;;;;;;7.03;86.19;100264.33;5251978;55;1132845;-80
2021/11/07 07:34:31;;;;;;;7.53;6.30;;;;;;;7.18;86.41;100242.26;5251959;55;1141034;-82
2021/11/07 07:39:36;;;;;;;10.43;6.87;;;;;;;7.19;85.80;100233.42;5251848;55;1135027;-76
2021/11/07 07:44:44;;;;;;;10.07;7.00;;;;;;;7.22;85.61;100220.07;5245185;55;1138991;-77
2021/11/07 07:49:52;;;;;;;10.17;6.07;;;;;;;7.26;85.63;100222.02;5239854;55;1138982;-79
2021/11/07 07:54:58;;;;;;;12.13;5.60;;;;;;;7.29;85.62;100211.30;5246316;55;1139088;-81
2021/11/07 08:00:07;;;;;;;10.23;6.63;;;;;;;7.30;85.65;100208.56;5267171;56;1138994;-78
2021/11/07 08:05:15;;;;;;;8.13;5.40;;;;;;;7.32;85.27;100206.67;5267483;55;1138935;-78
2021/11/07 08:10:22;;;;;;;7.77;5.07;;;;;;;7.33;85.45;100206.20;5250807;56;1134838;-79
2021/11/07 08:15:28;;;;;;;16.47;9.00;;;;;;;7.32;85.99;100190.89;5210303;56;1136911;-84
2021/11/07 08:20:34;;;;;;;10.73;7.10;;;;;;;7.33;85.91;100185.97;5210348;56;1139078;-77
2021/11/07 08:25:41;;;;;;;12.07;6.23;;;;;;;7.32;85.90;100188.27;5216169;56;1138972;-82
2021/11/07 08:30:52;;;;;;;14.50;7.60;;;;;;;7.33;85.37;100179.39;5221822;56;1139016;-82
2021/11/07 08:36:02;;;;;;;25.53;10.93;;;;;;;7.39;85.76;100201.81;5221873;56;1139141;-82
2021/11/07 08:41:07;;;;;;;21.60;10.07;;;;;;;7.43;85.58;100170.41;5221453;56;1141071;-79
2021/11/07 09:03:14;;;;;;;9.90;6.08;;;;;;;7.52;85.20;100175.48;5235007;55;1141034;-80
2021/11/07 09:13:02;;;;;;;10.77;6.60;;;;;;;7.47;86.83;100161.36;5242203;56;1136931;-79
2021/11/07 09:18:08;;;;;;;19.60;8.97;;;;;;;7.35;89.19;100166.98;5229304;55;1137228;-79
2021/11/07 09:39:06;;;;;;;22.33;8.10;;;;;;;6.89;96.30;100148.27;5251905;55;1137040;-80
2021/11/07 09:44:13;;;;;;;38.20;10.10;;;;;;;6.81;97.10;100151.91;5250906;55;1137103;-80
2021/11/07 09:49:23;;;;;;;46.10;10.33;;;;;;;6.72;97.77;100128.89;5251913;55;1139154;-80
2021/11/07 09:54:31;;;;;;;43.63;15.13;;;;;;;6.72;97.77;100128.89;5251832;55;1136832;-81
2021/11/07 09:59:37;;;;;;;32.10;11.17;;;;;;;6.77;97.64;100124.61;5293190;55;21184;-79
2021/11/07 10:04:43;;;;;;;33.57;17.63;;;;;;;6.74;98.64;100119.09;5278727;56;1136897;-80
2021/11/07 10:10:00;;;;;;;16.47;9.70;;;;;;;6.80;98.56;100107.33;5267846;56;1141065;-78
2021/11/07 10:15:05;;;;;;;15.47;9.70;;;;;;;6.83;98.25;100106.66;5220946;56;1138962;-80
2021/11/07 10:20:34;;;;;;;37.83;12.63;;;;;;;6.83;98.25;100106.66;5221612;56;1138956;-80
2021/11/07 10:25:58;;;;;;;27.70;12.33;;;;;;;6.84;98.63;100107.02;5218286;55;1141165;-85
2021/11/07 10:31:22;;;;;;;62.70;23.83;;;;;;;6.87;98.58;100088.89;5122461;56;1140893;-84
2021/11/07 10:42:29;;;;;;;173.73;63.63;;;;;;;6.98;98.70;100059.59;5222330;56;1141211;-87
2021/11/07 10:53:23;;;;;;;18.90;10.18;;;;;;;7.10;98.51;100083.33;5198705;56;1138891;-86
2021/11/07 10:58:46;;;;;;;15.03;8.83;;;;;;;7.07;99.29;100071.23;5223426;55;1138868;-87
2021/11/07 11:04:09;;;;;;;;;;;;;;;;;;;;;
2021/11/07 11:09:34;;;;;;;;;;;;;;;;;;;;;
2021/11/07 11:15:23;;;;;;;;;;;;;;;;;;;;;
2021/11/07 11:21:02;;;;;;;;;;;;;;;;;;;;;
2021/11/07 11:26:03;;;;;;;15.37;7.57;;;;;;;7.24;99.23;100047.22;5114710;57;1134793;-88
2021/11/07 11:31:29;;;;;;;26.57;11.77;;;;;;;7.39;98.79;100046.59;4961605;59;1138451;-88
2021/11/07 11:36:32;;;;;;;82.33;34.10;;;;;;;7.46;98.54;100030.74;4917429;58;1141463;-86
2021/11/07 11:41:55;;;;;;;;;;;;;;;;;;;;;
2021/11/07 11:47:39;;;;;;;;;;;;;;;;;;;;;
2021/11/07 12:09:39;;;;;;;7.77;6.13;;;;;;;7.71;97.56;99987.20;5197406;53;46381;-87
2021/11/07 12:15:13;;;;;;;8.47;5.27;;;;;;;8.03;97.26;99984.79;5253164;55;1128883;-87
2021/11/07 12:20:30;;;;;;;10.40;5.08;;;;;;;8.12;96.47;99977.97;5299208;55;1134840;-88
2021/11/07 12:25:36;;;;;;;12.87;6.27;;;;;;;8.29;96.33;99967.47;5285109;55;1136901;-85
2021/11/07 12:30:42;;;;;;;11.40;6.30;;;;;;;8.29;96.33;99967.47;5159788;55;1136970;-85
2021/11/07 12:41:27;;;;;;;5.73;3.77;;;;;;;8.36;96.16;99966.08;5043154;57;1137212;-86
2021/11/07 12:46:55;;;;;;;8.33;4.73;;;;;;;8.36;95.90;99953.75;5048708;56;1135177;-85
2021/11/07 12:52:16;;;;;;;15.60;8.53;;;;;;;8.44;95.52;99958.41;5096480;57;1134792;-86
2021/11/07 12:57:24;;;;;;;30.23;17.43;;;;;;;8.48;95.52;99953.27;4985258;58;1137249;-83
2021/11/07 13:02:32;;;;;;;48.63;21.97;;;;;;;8.52;95.61;99951.23;4947132;59;1139189;-84
2021/11/07 13:07:49;;;;;;;42.30;19.45;;;;;;;8.52;95.83;99952.08;5094720;56;1139327;-85
2021/11/07 13:13:03;;;;;;;11.77;6.40;;;;;;;8.53;95.73;99946.33;5124561;56;1139403;-85
2021/11/07 13:24:12;;;;;;;12.07;6.47;;;;;;;8.54;96.51;99945.38;5141238;56;1132993;-86
2021/11/07 13:34:23;;;;;;;7.27;4.47;;;;;;;8.60;95.95;99939.13;5138835;56;1134653;-85
2021/11/07 13:39:36;;;;;;;6.40;4.03;;;;;;;8.64;95.16;99950.27;5133835;57;1132600;-85
2021/11/07 13:44:55;;;;;;;8.77;3.33;;;;;;;8.69;95.04;99947.64;5123629;56;1132735;-85
2021/11/07 13:50:01;;;;;;;3.87;2.80;;;;;;;8.74;94.16;99945.94;5215284;55;1133092;-85
2021/11/07 13:55:20;;;;;;;18.53;10.07;;;;;;;8.77;93.53;99949.66;5250554;55;1132621;-84
2021/11/07 14:00:27;;;;;;;10.98;4.75;;;;;;;8.78;93.52;99931.08;5220790;56;1138918;-86
2021/11/07 14:05:39;;;;;;;7.33;3.57;;;;;;;8.77;93.04;99924.61;5200711;55;1136902;-86
2021/11/07 14:10:43;;;;;;;8.40;6.23;;;;;;;8.80;92.20;99939.72;5266209;55;1134759;-84
2021/11/07 14:15:52;;;;;;;19.93;8.13;;;;;;;8.77;92.32;99933.36;5250103;55;1135214;-85
2021/11/07 14:21:04;;;;;;;11.87;7.83;;;;;;;8.74;92.91;99932.76;5254154;55;1136977;-85
2021/11/07 14:26:25;;;;;;;11.12;4.72;;;;;;;8.69;93.95;99946.33;5251005;55;1137045;-85
2021/11/07 14:31:36;;;;;;;11.30;4.30;;;;;;;8.64;94.50;99930.50;5201251;56;1136897;-85
2021/11/07 14:36:54;;;;;;;7.13;4.30;;;;;;;8.56;95.14;99924.50;5209881;55;1137035;-85
2021/11/07 14:41:57;;;;;;;9.55;4.62;;;;;;;8.51;95.22;99930.63;5275373;55;1134770;-86
2021/11/07 14:47:28;;;;;;;11.03;4.60;;;;;;;8.44;95.20;99923.67;5283621;55;1135114;-81
2021/11/07 14:52:39;;;;;;;13.73;7.23;;;;;;;8.40;95.20;99924.86;5253281;55;1136829;-85
2021/11/07 14:58:11;;;;;;;24.30;10.10;;;;;;;8.37;95.45;99930.39;5239675;55;1137248;-85
2021/11/07 15:03:08;;;;;;;14.00;7.03;;;;;;;8.37;95.24;99933.51;5272034;55;1139010;-88
2021/11/07 15:08:24;;;;;;;20.03;9.60;;;;;;;8.35;95.26;99938.89;5270923;55;1136897;-86
2021/11/07 15:18:48;;;;;;;8.93;6.07;;;;;;;8.32;95.16;99937.81;5262550;55;1134868;-84
2021/11/07 15:23:58;;;;;;;6.55;4.03;;;;;;;8.32;95.16;99937.81;5229176;55;1135287;-84
2021/11/07 15:29:21;;;;;;;;;;;;;;;8.30;95.08;99943.64;5197097;56;1134852;-86
2021/11/07 15:34:35;;;;;;;3.05;2.60;;;;;;;8.30;94.87;99941.00;5226787;55;970049;-83
2021/11/07 15:39:50;;;;;;;32.43;15.93;;;;;;;8.29;94.77;99949.86;5210688;55;1130785;-84
2021/11/07 15:45:11;;;;;;;8.47;4.03;;;;;;;8.30;94.74;99948.91;5231647;54;1136822;-87
2021/11/07 16:01:00;;;;;;;6.13;2.87;;;;;;;8.36;94.14;99954.23;5061189;57;1130960;-85
2021/11/07 16:11:50;;;;;;;5.43;2.87;;;;;;;8.37;93.66;99946.69;5190491;55;1134513;-84
2021/11/07 16:22:02;;;;;;;9.43;3.10;;;;;;;8.37;93.37;99962.49;4990688;57;1134998;-86
2021/11/07 16:27:10;;;;;;;4.15;3.47;;;;;;;8.35;93.31;99970.52;5093383;56;1134899;-87
2021/11/07 16:32:21;;;;;;;5.60;3.13;;;;;;;8.35;93.50;99971.83;5189864;56;1134860;-86
2021/11/07 16:37:28;;;;;;;5.80;2.40;;;;;;;8.30;94.02;99969.98;5110079;56;1134874;-82
2021/11/07 16:42:34;;;;;;;3.90;2.73;;;;;;;8.24;94.96;99974.91;5203740;56;1134831;-82
2021/11/07 16:47:45;;;;;;;3.23;2.50;;;;;;;8.13;95.43;99975.22;5208711;56;1135053;-76
2021/11/07 16:52:50;;;;;;;3.00;1.93;;;;;;;8.07;95.52;99982.77;5208741;55;1134854;-77
2021/11/07 16:57:57;;;;;;;2.93;1.93;;;;;;;8.01;95.43;99986.69;5226139;55;1134807;-78
2021/11/07 17:03:07;;;;;;;10.87;3.47;;;;;;;7.95;95.59;99988.94;5118306;56;1134704;-78
2021/11/07 17:08:16;;;;;;;7.20;2.57;;;;;;;7.89;94.96;100002.10;5175827;55;1137210;-78
2021/11/07 17:13:17;;;;;;;8.03;4.03;;;;;;;7.84;94.50;99997.64;5307633;54;1137018;-81
2021/11/07 17:18:27;;;;;;;5.27;1.80;;;;;;;7.79;94.48;99991.91;5293480;55;1134871;-77
2021/11/07 17:23:56;;;;;;;4.13;1.80;;;;;;;7.73;94.24;100013.41;5288681;54;1135014;-79
2021/11/07 17:28:57;;;;;;;5.40;2.80;;;;;;;7.72;94.39;100004.67;5271741;54;1136869;-76
2021/11/07 17:34:18;;;;;;;6.13;1.90;;;;;;;7.70;94.24;100002.63;5274631;54;1136879;-81
2021/11/07 17:39:31;;;;;;;3.13;1.50;;;;;;;7.69;94.16;100025.11;5235234;55;1136883;-80
2021/11/07 17:55:12;;;;;;;7.40;2.10;;;;;;;7.47;93.97;100048.69;5214525;55;1134929;-82
2021/11/07 18:00:21;;;;;;;7.97;1.67;;;;;;;7.41;94.04;100052.11;5112755;56;1134931;-83
2021/11/07 18:05:33;;;;;;;6.03;1.70;;;;;;;7.34;94.10;100050.86;5223895;55;1134938;-82
2021/11/07 18:10:45;;;;;;;7.73;1.43;;;;;;;7.30;94.10;100063.89;5111905;56;1134802;-84
2021/11/07 18:15:46;;;;;;;14.23;3.83;;;;;;;7.23;94.12;100071.84;5276758;55;1134856;-81
2021/11/07 18:20:52;;;;;;;16.80;7.13;;;;;;;7.20;94.13;100068.58;5232285;55;1136880;-81
2021/11/07 18:26:02;;;;;;;6.70;2.50;;;;;;;7.15;94.15;100077.28;5121580;57;1136938;-82
2021/11/07 18:31:06;;;;;;;4.27;1.70;;;;;;;7.12;94.06;100077.49;5298007;54;1134848;-81
2021/11/07 18:36:11;;;;;;;6.20;1.50;;;;;;;7.08;94.25;100078.65;5110149;56;1134845;-83
2021/11/07 18:41:17;;;;;;;7.17;2.50;;;;;;;7.02;94.40;100078.63;5150103;56;1132698;-81
2021/11/07 18:46:25;;;;;;;9.10;3.07;;;;;;;6.94;93.93;100078.30;5274152;55;21140;-81
2021/11/07 18:51:31;;;;;;;9.87;3.27;;;;;;;6.94;93.93;100078.30;5102405;56;1132781;-83
2021/11/07 18:56:37;;;;;;;33.97;12.27;;;;;;;6.89;94.11;100085.19;5290414;54;1137002;-81
2021/11/07 19:01:43;;;;;;;15.90;5.67;;;;;;;6.83;94.28;100074.27;5282311;54;1140988;-81
2021/11/07 19:06:48;;;;;;;14.03;4.33;;;;;;;6.74;94.92;100078.36;5283275;54;1138927;-80
2021/11/07 19:11:55;;;;;;;25.77;7.50;;;;;;;6.71;95.39;100074.65;5238064;55;1138956;-82
2021/11/07 19:17:01;;;;;;;15.13;3.93;;;;;;;6.69;95.54;100076.06;5239695;55;1139019;-82
2021/11/07 19:22:08;;;;;;;18.53;5.47;;;;;;;6.70;95.82;100075.13;5229687;55;1138978;-84
2021/11/07 19:27:15;;;;;;;18.67;6.77;;;;;;;6.75;95.84;100083.14;5214792;55;1139081;-82
2021/11/07 19:32:22;;;;;;;11.87;3.73;;;;;;;6.75;96.34;100085.30;5208361;55;1138985;-84
2021/11/07 19:37:27;;;;;;;10.70;3.37;;;;;;;6.76;96.88;100086.98;5232736;55;1139140;-80
2021/11/07 19:42:33;;;;;;;9.60;3.40;;;;;;;6.80;97.17;100095.03;5189769;56;1139105;-83
2021/11/07 19:47:49;;;;;;;11.53;4.33;;;;;;;6.80;97.38;100088.93;5176447;56;1136954;-85
2021/11/07 19:52:49;;;;;;;24.20;5.63;;;;;;;6.84;98.43;100102.23;5186510;56;1138981;-86
2021/11/07 19:57:55;;;;;;;21.57;5.13;;;;;;;6.86;98.35;100102.50;5192020;56;1139036;-87
2021/11/07 20:13:35;;;;;;;4.53;2.10;;;;;;;6.92;98.89;100117.00;5221483;55;1137128;-77
2021/11/07 20:18:41;;;;;;;20.90;5.40;;;;;;;6.96;98.62;100114.53;5093964;56;1136990;-77
2021/11/07 20:23:52;;;;;;;10.23;3.27;;;;;;;6.96;98.67;100115.37;5287685;54;1139328;-77
2021/11/07 20:28:58;;;;;;;14.47;3.90;;;;;;;6.98;98.59;100119.21;5295614;55;1139117;-83
2021/11/07 20:34:10;;;;;;;15.97;5.20;;;;;;;6.99;99.06;100123.05;5266574;54;1138919;-82
2021/11/07 20:39:14;;;;;;;18.90;3.27;;;;;;;6.99;98.97;100123.05;5234717;55;1139202;-79
2021/11/07 20:44:30;;;;;;;7.57;2.07;;;;;;;7.05;98.94;100130.97;5206335;55;1139009;-81
2021/11/07 20:49:44;;;;;;;12.60;3.45;;;;;;;7.09;98.97;100127.66;5162299;56;1136982;-81
2021/11/07 20:54:46;;;;;;;8.10;2.47;;;;;;;7.12;98.83;100132.25;5317968;54;1138974;-78
2021/11/07 21:05:16;;;;;;;8.63;2.70;;;;;;;7.18;98.66;100135.74;5300535;54;1139043;-80
2021/11/07 21:15:29;;;;;;;9.57;2.93;;;;;;;7.26;98.18;100137.38;5251769;55;1134926;-83
2021/11/07 21:26:09;;;;;;;5.58;2.00;;;;;;;7.28;98.24;100128.07;5232206;55;1136902;-76
2021/11/07 21:31:10;;;;;;;3.52;1.60;;;;;;;7.29;98.35;100133.70;5302272;54;1135002;-79
2021/11/07 21:36:28;;;;;;;8.83;3.63;;;;;;;7.30;98.24;100133.59;5338150;54;1134940;-80
2021/11/07 21:41:40;;;;;;;5.80;2.27;;;;;;;7.30;98.25;100141.48;5304600;54;1135112;-78
2021/11/07 21:46:48;;;;;;;5.87;2.03;;;;;;;7.33;98.01;100154.40;5302667;54;1135213;-80
2021/11/07 21:51:49;;;;;;;4.37;2.40;;;;;;;7.33;98.07;100158.34;5283422;55;1135053;-76
2021/11/07 21:56:55;;;;;;;10.87;2.47;;;;;;;7.35;97.86;100159.09;5140051;55;1132735;-79
2021/11/07 22:02:02;;;;;;;7.33;2.93;;;;;;;7.36;97.83;100158.61;5137944;57;1134915;-76
2021/11/07 22:07:08;;;;;;;8.57;2.30;;;;;;;7.35;97.75;100163.03;5287188;55;1137671;-76
2021/11/07 22:12:15;;;;;;;11.40;3.30;;;;;;;7.34;97.88;100170.55;5380857;54;1136860;-79
2021/11/07 22:17:23;;;;;;;7.10;1.73;;;;;;;7.31;97.77;100170.80;5349974;54;1139015;-76
2021/11/07 22:22:37;;;;;;;5.80;2.27;;;;;;;7.34;97.75;100167.92;5102448;57;1137088;-77
2021/11/07 22:27:47;;;;;;;9.13;2.43;;;;;;;7.31;97.91;100172.11;5112950;57;1137162;-83
2021/11/07 22:32:54;;;;;;;6.73;2.13;;;;;;;7.28;98.08;100173.63;5099406;57;1136993;-77
2021/11/07 22:37:57;;;;;;;4.43;1.97;;;;;;;7.24;98.30;100169.52;5096094;57;1137056;-79
2021/11/07 22:43:08;;;;;;;5.00;2.10;;;;;;;7.15;98.34;100167.54;5095313;57;1136997;-82
2021/11/07 22:48:17;;;;;;;8.13;2.70;;;;;;;7.21;98.42;100184.19;5113608;57;1137077;-83
2021/11/07 22:53:31;;;;;;;4.90;2.00;;;;;;;7.17;98.77;100185.84;5188244;55;1136829;-78
2021/11/07 23:14:33;;;;;;;8.87;2.53;;;;;;;7.14;98.66;100222.39;5092511;56;1139459;-78
2021/11/07 23:19:52;;;;;;;12.00;2.63;;;;;;;7.17;98.88;100216.94;5029034;57;1137136;-78
2021/11/07 23:25:01;;;;;;;6.70;2.43;;;;;;;7.17;98.96;100220.03;5048778;57;1139247;-78
2021/11/07 23:30:16;;;;;;;7.47;2.40;;;;;;;7.17;98.85;100214.78;5046351;57;1136972;-75
2021/11/07 23:35:24;;;;;;;6.10;2.30;;;;;;;7.19;98.87;100214.17;5064951;56;1137122;-79
2021/11/07 23:40:36;;;;;;;9.47;2.10;;;;;;;7.19;98.91;100218.11;5288171;55;1136922;-78
2021/11/07 23:45:46;;;;;;;3.50;2.03;;;;;;;7.22;98.73;100212.66;5278097;55;1137094;-78
2021/11/07 23:56:10;;;;;;;7.57;2.50;;;;;;;7.25;98.87;100212.45;5309425;55;1134861;-77
